Time;durP1;ratioP1;P1;durP2;ratioP2;P2;SDS_P1;SDS_P2;PMS_P1;PMS_P2;Temp;Humidity;BMP_temperature;BMP_pressure;BME280_temperature;BME280_humidity;BME280_pressure;Samples;Min_cycle;Max_cycle;Signal;HPM_P1;HPM_P2
2021/04/07 00:02:22;;;;;;;1.20;1.10;;;1.90;99.90;;;;;;5068030;28;20656;-78
2021/04/07 00:04:53;;;;;;;4.97;1.30;;;1.80;99.90;;;;;;5068507;28;20216;-77
2021/04/07 00:07:19;;;;;;;4.37;1.30;;;1.90;99.90;;;;;;5067856;28;20639;-78
2021/04/07 00:09:46;;;;;;;4.17;1.40;;;1.80;99.90;;;;;;5068703;28;20249;-77
2021/04/07 00:12:12;;;;;;;1.40;1.30;;;1.80;99.90;;;;;;5068219;28;20214;-77
2021/04/07 00:14:38;;;;;;;1.77;1.47;;;1.80;99.90;;;;;;5068135;28;20239;-78
2021/04/07 00:17:05;;;;;;;2.90;1.30;;;1.80;99.90;;;;;;5068111;28;20605;-77
2021/04/07 00:19:31;;;;;;;1.60;1.50;;;1.80;99.90;;;;;;5068403;28;20239;-77
2021/04/07 00:21:58;;;;;;;4.50;1.93;;;1.80;99.90;;;;;;5068368;28;20208;-77
2021/04/07 00:24:24;;;;;;;2.97;1.20;;;1.80;99.90;;;;;;5068248;28;20203;-77
2021/04/07 00:26:50;;;;;;;2.33;1.20;;;1.80;99.90;;;;;;5068391;28;20265;-77
2021/04/07 00:29:16;;;;;;;2.70;1.50;;;1.80;99.90;;;;;;5068007;28;20269;-77
2021/04/07 00:31:42;;;;;;;4.07;1.80;;;1.80;99.90;;;;;;5071171;28;20203;-77
2021/04/07 00:34:10;;;;;;;2.37;1.40;;;1.70;99.90;;;;;;5072036;28;20218;-77
2021/04/07 00:36:36;;;;;;;2.67;1.63;;;1.70;99.90;;;;;;5072265;28;20562;-78
2021/04/07 00:39:02;;;;;;;3.50;1.80;;;1.70;99.90;;;;;;5072034;28;20234;-78
2021/04/07 00:41:28;;;;;;;2.87;1.47;;;1.80;99.90;;;;;;5071770;28;20615;-78
2021/04/07 00:43:54;;;;;;;1.87;1.40;;;1.70;99.90;;;;;;5072070;28;20211;-78
2021/04/07 00:46:20;;;;;;;2.00;1.50;;;1.70;99.90;;;;;;5071542;28;20250;-77
2021/04/07 00:48:46;;;;;;;5.70;1.90;;;1.70;99.90;;;;;;5071749;28;20207;-78
2021/04/07 00:51:13;;;;;;;3.50;1.57;;;1.80;99.90;;;;;;5071755;28;20636;-78
2021/04/07 00:53:40;;;;;;;2.57;1.67;;;1.80;99.90;;;;;;5071607;28;20623;-78
2021/04/07 00:56:07;;;;;;;2.13;1.60;;;1.70;99.90;;;;;;5071861;28;20203;-78
2021/04/07 00:58:33;;;;;;;2.93;1.53;;;1.80;99.90;;;;;;5071736;28;20264;-78
2021/04/07 01:00:59;;;;;;;5.47;1.63;;;1.80;99.90;;;;;;5071820;28;20235;-78
2021/04/07 01:03:25;;;;;;;2.83;1.60;;;1.80;99.90;;;;;;5071418;28;20254;-78
2021/04/07 01:05:55;;;;;;;5.37;1.67;;;1.80;99.90;;;;;;5071659;28;20200;-78
2021/04/07 01:08:22;;;;;;;2.50;1.67;;;1.70;99.90;;;;;;5071252;28;20624;-78
2021/04/07 01:10:48;;;;;;;3.63;1.60;;;1.80;99.90;;;;;;5071725;28;20250;-77
2021/04/07 01:13:14;;;;;;;4.47;1.67;;;1.80;99.90;;;;;;5071575;28;20207;-78
2021/04/07 01:15:40;;;;;;;1.30;1.13;;;1.80;99.90;;;;;;5070948;28;20273;-78
2021/04/07 01:18:06;;;;;;;2.10;1.47;;;1.80;99.90;;;;;;5071224;28;20266;-77
2021/04/07 01:20:33;;;;;;;3.50;2.00;;;1.80;99.90;;;;;;5071230;28;20211;-78
2021/04/07 01:23:01;;;;;;;1.47;1.23;;;1.80;99.90;;;;;;5071233;28;20208;-78
2021/04/07 01:25:29;;;;;;;3.47;2.00;;;1.80;99.90;;;;;;5071199;28;20249;-77
2021/04/07 01:27:55;;;;;;;3.83;1.90;;;1.80;99.90;;;;;;5071324;28;20218;-77
2021/04/07 01:30:22;;;;;;;4.30;1.40;;;1.80;99.90;;;;;;5070997;28;20227;-78
2021/04/07 01:32:48;;;;;;;3.03;1.80;;;1.80;99.90;;;;;;5071199;28;20608;-78
2021/04/07 01:35:17;;;;;;;2.33;1.30;;;1.80;99.90;;;;;;5070959;28;20207;-78
2021/04/07 01:37:44;;;;;;;6.17;1.73;;;1.80;99.90;;;;;;5070883;28;20778;-78
2021/04/07 01:40:12;;;;;;;4.00;1.63;;;1.80;99.90;;;;;;5070612;28;20677;-78
2021/04/07 01:42:41;;;;;;;2.13;1.67;;;1.70;99.90;;;;;;5070511;28;20222;-78
2021/04/07 01:45:08;;;;;;;3.40;2.03;;;1.70;99.90;;;;;;5070813;28;20234;-77
2021/04/07 01:47:34;;;;;;;2.40;1.70;;;1.70;99.90;;;;;;5070778;28;20203;-78
2021/04/07 01:50:02;;;;;;;5.83;1.87;;;1.80;99.90;;;;;;5070564;28;20677;-77
2021/04/07 01:52:28;;;;;;;3.37;1.70;;;1.80;99.90;;;;;;5070818;28;20292;-77
2021/04/07 01:54:55;;;;;;;2.90;1.90;;;1.70;99.90;;;;;;5070226;28;20701;-78
2021/04/07 01:57:21;;;;;;;1.70;1.60;;;1.70;99.90;;;;;;5070538;28;20263;-78
2021/04/07 01:59:51;;;;;;;5.73;1.83;;;1.70;99.90;;;;;;5070665;28;20256;-78
2021/04/07 02:02:17;;;;;;;3.00;1.80;;;1.70;99.90;;;;;;5070365;28;20241;-78
2021/04/07 02:04:44;;;;;;;7.03;2.03;;;1.70;99.90;;;;;;5070570;28;20245;-77
2021/04/07 02:07:11;;;;;;;2.67;1.60;;;1.70;99.90;;;;;;5070578;28;20234;-77
2021/04/07 02:09:37;;;;;;;2.90;1.70;;;1.70;99.90;;;;;;5070506;28;20199;-77
2021/04/07 02:12:04;;;;;;;5.47;2.07;;;1.70;99.90;;;;;;5070529;28;20261;-78
2021/04/07 02:14:31;;;;;;;4.27;1.93;;;1.60;99.90;;;;;;5070043;28;20606;-78
2021/04/07 02:17:00;;;;;;;2.77;1.93;;;1.70;99.90;;;;;;5069930;28;20758;-78
2021/04/07 02:19:27;;;;;;;3.13;2.13;;;1.60;99.90;;;;;;5070088;28;20208;-77
2021/04/07 02:22:02;;;;;;;4.20;2.20;;;1.70;99.90;;;;;;5070356;28;20253;-78
2021/04/07 02:24:28;;;;;;;3.70;2.00;;;1.70;99.90;;;;;;5070129;28;20264;-76
2021/04/07 02:26:54;;;;;;;5.67;2.10;;;1.60;99.90;;;;;;5070270;28;20246;-78
2021/04/07 02:29:20;;;;;;;5.13;2.23;;;1.60;99.90;;;;;;5069777;28;20246;-78
2021/04/07 02:31:47;;;;;;;5.33;2.20;;;1.60;99.90;;;;;;5070172;28;20218;-78
2021/04/07 02:34:15;;;;;;;4.03;1.90;;;1.60;99.90;;;;;;5069554;28;20211;-78
2021/04/07 02:36:41;;;;;;;2.70;2.20;;;1.60;99.90;;;;;;5069875;28;20227;-78
2021/04/07 02:39:07;;;;;;;4.70;2.30;;;1.60;99.90;;;;;;5069887;28;20211;-78
2021/04/07 02:41:33;;;;;;;4.10;2.30;;;1.60;99.90;;;;;;5069854;28;20210;-78
2021/04/07 02:44:00;;;;;;;3.23;1.83;;;1.60;99.90;;;;;;5069862;28;20235;-78
2021/04/07 02:46:26;;;;;;;3.53;2.10;;;1.60;99.90;;;;;;5069537;28;20235;-77
2021/04/07 02:48:52;;;;;;;5.10;2.40;;;1.60;99.90;;;;;;5069613;28;20208;-78
2021/04/07 02:51:19;;;;;;;6.20;2.30;;;1.60;99.90;;;;;;5068969;28;20261;-78
2021/04/07 02:53:45;;;;;;;2.87;2.40;;;1.60;99.90;;;;;;5068825;28;20219;-77
2021/04/07 02:56:11;;;;;;;4.07;2.33;;;1.60;99.90;;;;;;5068992;28;20609;-78
2021/04/07 02:58:37;;;;;;;3.20;2.10;;;1.50;99.90;;;;;;5069505;28;20203;-78
2021/04/07 03:01:03;;;;;;;4.90;2.60;;;1.50;99.90;;;;;;5069130;28;20214;-78
2021/04/07 03:03:29;;;;;;;2.67;2.03;;;1.60;99.90;;;;;;5068985;28;20257;-77
2021/04/07 03:05:56;;;;;;;5.47;2.33;;;1.60;99.90;;;;;;5069419;28;20207;-77
2021/04/07 03:08:22;;;;;;;3.17;2.20;;;1.60;99.90;;;;;;5069150;28;20207;-78
2021/04/07 03:10:49;;;;;;;4.53;2.10;;;1.60;99.90;;;;;;5069043;28;20238;-78
2021/04/07 03:13:15;;;;;;;2.80;1.90;;;1.70;99.90;;;;;;5068962;28;20673;-78
2021/04/07 03:15:41;;;;;;;3.40;2.30;;;1.60;99.90;;;;;;5068853;28;20235;-77
2021/04/07 03:18:07;;;;;;;3.63;2.30;;;1.60;99.90;;;;;;5068510;28;20234;-78
2021/04/07 03:20:33;;;;;;;2.83;2.20;;;1.60;99.90;;;;;;5068837;28;20238;-77
2021/04/07 03:22:59;;;;;;;3.83;2.27;;;1.60;99.90;;;;;;5069186;28;20607;-77
2021/04/07 03:25:26;;;;;;;6.07;2.30;;;1.70;99.90;;;;;;5068768;28;20208;-77
2021/04/07 03:27:52;;;;;;;2.87;2.13;;;1.60;99.90;;;;;;5068831;28;20239;-77
2021/04/07 03:30:19;;;;;;;3.77;2.40;;;1.60;99.90;;;;;;5068739;28;20622;-77
2021/04/07 03:32:45;;;;;;;3.83;2.37;;;1.60;99.90;;;;;;5069001;28;20211;-77
2021/04/07 03:35:12;;;;;;;2.87;2.40;;;1.60;99.90;;;;;;5068631;28;20214;-78
2021/04/07 03:37:38;;;;;;;3.87;2.37;;;1.60;99.90;;;;;;5068614;28;20262;-77
2021/04/07 03:40:05;;;;;;;2.93;2.23;;;1.60;99.90;;;;;;5068508;28;20683;-77
2021/04/07 03:42:32;;;;;;;2.50;2.30;;;1.60;99.90;;;;;;5068819;28;20211;-77
2021/04/07 03:44:58;;;;;;;6.17;2.27;;;1.70;99.90;;;;;;5068814;28;20242;-77
2021/04/07 03:47:24;;;;;;;5.63;2.33;;;1.70;99.90;;;;;;5068671;28;20233;-77
2021/04/07 03:49:50;;;;;;;4.73;2.43;;;1.70;99.90;;;;;;5068500;28;20214;-77
2021/04/07 03:52:16;;;;;;;2.43;2.13;;;1.60;99.90;;;;;;5068493;28;20234;-77
2021/04/07 03:54:44;;;;;;;5.30;2.67;;;1.70;99.90;;;;;;5068445;28;20242;-77
2021/04/07 03:57:10;;;;;;;4.83;2.80;;;1.70;99.90;;;;;;5068450;28;20234;-78
2021/04/07 03:59:37;;;;;;;5.97;2.70;;;1.70;99.90;;;;;;5068368;28;20207;-78
2021/04/07 04:02:03;;;;;;;5.27;2.70;;;1.60;99.90;;;;;;5068496;28;20595;-78
2021/04/07 04:04:29;;;;;;;3.93;2.87;;;1.60;99.90;;;;;;5067615;28;20666;-78
2021/04/07 04:06:55;;;;;;;6.33;2.60;;;1.70;99.90;;;;;;5068582;28;20218;-78
2021/04/07 04:09:21;;;;;;;3.97;2.93;;;1.70;99.90;;;;;;5068078;28;20239;-77
2021/04/07 04:11:47;;;;;;;8.30;2.80;;;1.70;99.90;;;;;;5068428;28;20578;-77
2021/04/07 04:14:13;;;;;;;3.67;2.60;;;1.70;99.90;;;;;;5068091;28;20242;-78
2021/04/07 04:16:42;;;;;;;5.07;2.77;;;1.60;99.90;;;;;;5068348;28;20267;-78
2021/04/07 04:19:08;;;;;;;3.10;2.50;;;1.60;99.90;;;;;;5068408;28;20203;-78
2021/04/07 04:21:34;;;;;;;7.63;2.97;;;1.70;99.90;;;;;;5068092;28;20605;-78
2021/04/07 04:24:00;;;;;;;4.93;3.10;;;1.70;99.90;;;;;;5068041;28;20207;-78
2021/04/07 04:26:27;;;;;;;3.10;2.30;;;1.60;99.90;;;;;;5068016;28;20207;-78
2021/04/07 04:28:53;;;;;;;5.40;2.70;;;1.60;99.90;;;;;;5068022;28;20250;-78
2021/04/07 04:31:19;;;;;;;3.50;2.73;;;1.70;99.90;;;;;;5067944;28;20241;-78
2021/04/07 04:33:46;;;;;;;6.33;2.93;;;1.60;99.90;;;;;;5068033;28;20234;-78
2021/04/07 04:36:12;;;;;;;4.50;2.70;;;1.60;99.90;;;;;;5068251;28;20207;-77
2021/04/07 04:38:38;;;;;;;5.10;2.77;;;1.60;99.90;;;;;;5068132;28;20265;-77
2021/04/07 04:41:04;;;;;;;6.50;2.83;;;1.70;99.90;;;;;;5067961;28;20211;-78
2021/04/07 04:43:30;;;;;;;4.87;2.77;;;1.60;99.90;;;;;;5067932;28;20234;-78
2021/04/07 04:45:56;;;;;;;5.90;2.60;;;1.60;99.90;;;;;;5068043;28;20207;-78
2021/04/07 04:48:22;;;;;;;2.97;2.20;;;1.60;99.90;;;;;;5067797;28;20245;-77
2021/04/07 04:50:49;;;;;;;4.03;2.50;;;1.60;99.90;;;;;;5067971;28;20207;-78
2021/04/07 04:53:15;;;;;;;4.80;2.43;;;1.70;99.90;;;;;;5067680;28;20559;-77
2021/04/07 04:55:41;;;;;;;5.07;2.60;;;1.60;99.90;;;;;;5067950;28;20234;-77
2021/04/07 04:58:07;;;;;;;4.97;2.60;;;1.60;99.90;;;;;;5067921;28;20263;-78
2021/04/07 05:00:33;;;;;;;4.20;2.10;;;1.70;99.90;;;;;;5067899;28;20235;-77
2021/04/07 05:02:59;;;;;;;5.10;2.70;;;1.60;99.90;;;;;;5067987;28;20239;-78
2021/04/07 05:05:26;;;;;;;3.97;2.40;;;1.60;99.90;;;;;;5067830;28;20253;-78
2021/04/07 05:07:52;;;;;;;5.47;2.73;;;1.60;99.90;;;;;;5067569;28;20753;-78
2021/04/07 05:10:19;;;;;;;4.87;2.80;;;1.60;99.90;;;;;;5067704;28;20203;-77
2021/04/07 05:12:45;;;;;;;5.30;2.40;;;1.60;99.90;;;;;;5067847;28;20601;-78
2021/04/07 05:15:12;;;;;;;3.20;2.40;;;1.60;99.90;;;;;;5067410;28;20243;-77
2021/04/07 05:17:38;;;;;;;3.97;2.50;;;1.50;99.90;;;;;;5070217;28;20283;-77
2021/04/07 05:20:06;;;;;;;6.90;2.70;;;1.60;99.90;;;;;;5071227;28;20214;-77
2021/04/07 05:22:32;;;;;;;4.20;2.20;;;1.60;99.90;;;;;;5071012;28;20693;-77
2021/04/07 05:24:59;;;;;;;4.03;2.50;;;1.60;99.90;;;;;;5071085;28;20239;-78
2021/04/07 05:27:25;;;;;;;5.10;2.80;;;1.60;99.90;;;;;;5071137;28;20268;-77
2021/04/07 05:29:51;;;;;;;7.87;2.90;;;1.60;99.90;;;;;;5071179;28;20277;-77
2021/04/07 05:32:17;;;;;;;7.80;2.50;;;1.60;99.90;;;;;;5071126;28;20243;-77
2021/04/07 05:34:43;;;;;;;4.07;2.70;;;1.60;99.90;;;;;;5070836;28;20239;-77
2021/04/07 05:37:10;;;;;;;4.63;2.20;;;1.60;99.90;;;;;;5070530;28;20308;-77
2021/04/07 05:39:36;;;;;;;4.40;2.60;;;1.60;99.90;;;;;;5070808;28;20214;-77
2021/04/07 05:42:03;;;;;;;5.00;2.70;;;1.60;99.90;;;;;;5071067;28;20591;-77
2021/04/07 05:44:30;;;;;;;5.30;2.40;;;1.70;99.90;;;;;;5070773;28;20208;-77
2021/04/07 05:46:57;;;;;;;2.30;2.07;;;1.70;99.90;;;;;;5071004;28;20256;-78
2021/04/07 05:49:25;;;;;;;6.53;4.27;;;1.70;99.90;;;;;;5070502;28;20716;-78
2021/04/07 05:51:51;;;;;;;5.27;2.73;;;1.70;99.90;;;;;;5070801;28;20238;-77
2021/04/07 05:54:17;;;;;;;8.67;2.77;;;1.70;99.90;;;;;;5070754;28;20250;-77
2021/04/07 05:56:44;;;;;;;4.60;2.67;;;1.80;99.90;;;;;;5070788;28;20543;-77
2021/04/07 05:59:10;;;;;;;4.83;2.47;;;1.80;99.90;;;;;;5070801;28;20203;-77
2021/04/07 06:01:37;;;;;;;5.60;2.67;;;1.70;99.90;;;;;;5070512;28;20245;-77
2021/04/07 06:04:03;;;;;;;6.23;2.33;;;1.80;99.90;;;;;;5070488;28;20204;-78
2021/04/07 06:06:29;;;;;;;4.70;2.37;;;1.80;99.90;;;;;;5070331;28;20215;-77
2021/04/07 06:08:56;;;;;;;6.23;2.53;;;1.80;99.90;;;;;;5070600;28;20211;-78
2021/04/07 06:11:22;;;;;;;4.53;2.63;;;1.80;99.90;;;;;;5070435;28;20211;-77
2021/04/07 06:13:49;;;;;;;4.47;2.00;;;1.80;99.90;;;;;;5070160;28;20231;-78
2021/04/07 06:16:16;;;;;;;5.00;2.10;;;1.80;99.90;;;;;;5070569;28;20192;-78
2021/04/07 06:18:43;;;;;;;5.33;2.67;;;1.90;99.90;;;;;;5070007;28;20241;-77
2021/04/07 06:21:09;;;;;;;3.87;2.43;;;1.90;99.90;;;;;;5070403;28;20210;-78
2021/04/07 06:23:35;;;;;;;5.90;2.50;;;2.00;99.90;;;;;;5070523;28;20211;-78
2021/04/07 06:26:01;;;;;;;7.87;2.90;;;2.00;99.90;;;;;;5070164;28;20597;-78
2021/04/07 06:28:27;;;;;;;5.13;2.60;;;2.10;99.90;;;;;;5068778;28;20261;-78
2021/04/07 06:30:53;;;;;;;6.00;2.60;;;2.00;99.90;;;;;;5070211;28;20284;-78
2021/04/07 06:33:22;;;;;;;5.37;3.07;;;2.00;99.90;;;;;;5070114;28;20245;-78
2021/04/07 06:35:50;;;;;;;6.80;2.87;;;2.10;99.90;;;;;;5069874;28;20210;-78
2021/04/07 06:38:18;;;;;;;7.53;2.80;;;2.10;99.90;;;;;;5069957;28;20266;-78
2021/04/07 06:40:45;;;;;;;4.20;2.67;;;2.00;99.90;;;;;;5069861;28;20200;-78
2021/04/07 06:43:12;;;;;;;6.37;2.13;;;2.00;99.90;;;;;;5069456;28;20211;-78
2021/04/07 06:45:39;;;;;;;6.33;2.13;;;2.00;99.90;;;;;;5069621;28;20261;-77
2021/04/07 06:48:07;;;;;;;4.60;2.37;;;2.00;99.90;;;;;;5069695;28;20212;-78
2021/04/07 06:50:35;;;;;;;7.30;2.77;;;2.00;99.90;;;;;;5069495;28;20204;-78
2021/04/07 06:53:04;;;;;;;2.73;2.40;;;2.10;99.90;;;;;;5069221;28;20799;-78
2021/04/07 06:55:30;;;;;;;7.27;2.73;;;2.10;99.90;;;;;;5069440;28;20212;-77
2021/04/07 06:57:56;;;;;;;5.67;2.77;;;1.90;99.90;;;;;;5069272;28;20599;-77
2021/04/07 07:00:26;;;;;;;8.13;3.37;;;1.50;99.90;;;;;;5069290;28;20207;-78
2021/04/07 07:02:59;;;;;;;7.43;3.00;;;1.30;99.90;;;;;;5069383;28;20243;-77
2021/04/07 07:05:25;;;;;;;6.63;3.37;;;1.20;99.90;;;;;;5069654;28;20249;-77
2021/04/07 07:07:58;;;;;;;10.07;3.90;;;1.20;99.90;;;;;;5069007;28;20207;-78
2021/04/07 07:10:34;;;;;;;11.70;3.90;;;1.20;99.90;;;;;;5069153;28;20231;-77
2021/04/07 07:13:00;;;;;;;9.13;3.60;;;1.30;99.90;;;;;;5069334;28;20203;-77
2021/04/07 07:15:27;;;;;;;6.17;3.27;;;1.30;99.90;;;;;;5068576;28;20239;-77
2021/04/07 07:17:53;;;;;;;6.53;4.10;;;1.40;99.90;;;;;;5069010;28;20235;-77
2021/04/07 07:20:26;;;;;;;7.10;3.73;;;1.60;99.90;;;;;;5068970;28;20215;-77
2021/04/07 07:22:53;;;;;;;10.70;3.77;;;1.60;99.90;;;;;;5069004;28;20247;-77
2021/04/07 07:25:19;;;;;;;7.77;3.53;;;1.60;99.90;;;;;;5068988;28;20220;-77
2021/04/07 07:27:45;;;;;;;6.93;3.60;;;1.70;99.90;;;;;;5068800;28;20203;-78
2021/04/07 07:30:13;;;;;;;7.00;3.90;;;1.70;99.90;;;;;;5068742;28;20289;-77
2021/04/07 07:32:42;;;;;;;8.03;4.40;;;1.80;99.90;;;;;;5068641;28;20208;-77
2021/04/07 07:35:11;;;;;;;10.47;5.33;;;1.80;99.90;;;;;;5068812;28;20218;-78
2021/04/07 07:37:39;;;;;;;11.20;4.10;;;1.90;99.90;;;;;;5068656;28;20220;-77
2021/04/07 07:40:19;;;;;;;8.03;3.60;;;1.90;99.90;;;;;;5068299;28;20204;-77
2021/04/07 07:42:46;;;;;;;8.63;3.20;;;1.90;99.90;;;;;;5068589;28;20199;-77
2021/04/07 07:45:15;;;;;;;7.83;3.37;;;2.00;99.90;;;;;;5068834;28;20203;-77
2021/04/07 07:47:44;;;;;;;8.50;3.43;;;2.10;99.90;;;;;;5068604;28;20215;-77
2021/04/07 07:50:12;;;;;;;7.63;2.83;;;2.20;99.90;;;;;;5068676;28;20298;-78
2021/04/07 07:52:41;;;;;;;3.73;2.70;;;2.30;99.90;;;;;;5068573;28;20207;-78
2021/04/07 07:55:15;;;;;;;4.90;2.67;;;2.30;99.90;;;;;;5068680;28;20216;-77
2021/04/07 07:57:51;;;;;;;5.57;2.63;;;2.30;99.90;;;;;;5068242;28;20607;-77
2021/04/07 08:00:18;;;;;;;4.30;2.30;;;2.30;99.90;;;;;;5068728;28;20231;-77
2021/04/07 08:02:45;;;;;;;5.30;2.20;;;2.40;99.90;;;;;;5068550;28;20204;-78
2021/04/07 08:05:15;;;;;;;7.67;2.43;;;2.40;99.90;;;;;;5068153;28;20574;-78
2021/04/07 08:07:42;;;;;;;4.00;2.10;;;2.50;99.90;;;;;;5068185;28;20214;-78
2021/04/07 08:10:09;;;;;;;7.00;2.77;;;2.60;99.90;;;;;;5067956;28;20666;-77
2021/04/07 08:12:36;;;;;;;5.70;2.83;;;2.60;99.90;;;;;;5068260;28;20210;-78
2021/04/07 08:15:03;;;;;;;5.13;2.90;;;2.70;99.90;;;;;;5068256;28;20247;-78
2021/04/07 08:17:30;;;;;;;5.57;2.50;;;2.80;99.90;;;;;;5068135;28;21126;-78
2021/04/07 08:19:57;;;;;;;5.97;2.70;;;2.80;99.90;;;;;;5068171;28;20230;-78
2021/04/07 08:22:26;;;;;;;6.07;2.43;;;2.80;99.90;;;;;;5068283;28;20230;-77
2021/04/07 08:24:53;;;;;;;4.20;2.00;;;2.90;99.90;;;;;;5067975;28;20658;-77
2021/04/07 08:27:21;;;;;;;4.90;2.20;;;2.90;99.90;;;;;;5068381;28;20426;-78
2021/04/07 08:29:48;;;;;;;7.03;1.93;;;2.90;99.90;;;;;;5068165;28;20524;-77
2021/04/07 08:32:18;;;;;;;5.43;2.30;;;3.00;99.90;;;;;;5067830;28;20207;-77
2021/04/07 08:34:46;;;;;;;4.13;2.37;;;3.00;99.90;;;;;;5068171;28;20195;-78
2021/04/07 08:37:15;;;;;;;6.97;2.37;;;3.10;99.90;;;;;;5068025;28;20234;-77
2021/04/07 08:39:43;;;;;;;10.30;2.83;;;3.20;99.90;;;;;;5067936;28;20576;-78
2021/04/07 08:42:11;;;;;;;3.83;1.90;;;3.20;99.90;;;;;;5068182;28;20247;-77
2021/04/07 08:44:43;;;;;;;5.87;2.33;;;3.30;99.90;;;;;;5068018;28;20207;-77
2021/04/07 08:47:23;;;;;;;5.03;1.93;;;3.40;99.90;;;;;;5068022;28;20194;-78
2021/04/07 08:50:00;;;;;;;4.03;2.13;;;3.30;99.90;;;;;;5067608;28;20658;-77
2021/04/07 08:52:26;;;;;;;4.07;1.83;;;3.40;99.90;;;;;;5070582;28;20196;-77
2021/04/07 08:54:56;;;;;;;4.40;2.00;;;3.40;99.90;;;;;;5071777;28;20294;-78
2021/04/07 08:57:30;;;;;;;5.10;2.00;;;3.50;99.90;;;;;;5071896;28;20222;-78
2021/04/07 08:59:58;;;;;;;3.73;1.77;;;3.60;99.90;;;;;;5071706;28;20192;-77
2021/04/07 09:02:26;;;;;;;3.60;2.00;;;3.80;99.90;;;;;;5071378;28;20216;-78
2021/04/07 09:05:04;;;;;;;5.47;2.63;;;3.90;99.90;;;;;;5071509;28;20211;-78
2021/04/07 09:07:40;;;;;;;8.07;2.23;;;4.20;99.90;;;;;;5071642;28;20361;-77
2021/04/07 09:10:17;;;;;;;5.93;2.47;;;4.30;99.90;;;;;;5072200;28;20246;-78
2021/04/07 09:12:45;;;;;;;4.17;2.13;;;4.30;99.90;;;;;;5071283;28;20198;-78
2021/04/07 09:15:16;;;;;;;5.93;2.37;;;4.50;99.90;;;;;;5070636;28;20239;-78
2021/04/07 09:17:45;;;;;;;7.40;1.67;;;4.60;99.90;;;;;;5071354;28;20223;-77
2021/04/07 09:20:32;;;;;;;5.33;2.10;;;4.40;99.90;;;;;;5071247;28;20218;-78
2021/04/07 09:23:06;;;;;;;6.30;2.67;;;4.50;99.90;;;;;;5071564;28;20219;-78
2021/04/07 09:25:33;;;;;;;6.33;2.10;;;4.50;99.90;;;;;;5071228;28;20194;-77
2021/04/07 09:28:06;;;;;;;5.37;2.23;;;4.60;99.90;;;;;;5071428;28;20207;-78
2021/04/07 09:30:45;;;;;;;7.57;2.27;;;4.50;99.90;;;;;;5071252;28;20229;-77
2021/04/07 09:33:14;;;;;;;5.03;2.20;;;4.40;99.90;;;;;;5071049;28;20534;-78
2021/04/07 09:35:55;;;;;;;3.10;2.10;;;4.50;99.90;;;;;;5070815;28;20261;-77
2021/04/07 09:38:21;;;;;;;3.93;1.93;;;4.40;99.90;;;;;;5071241;28;20258;-77
2021/04/07 09:40:47;;;;;;;4.10;1.80;;;4.40;99.90;;;;;;5070872;28;20564;-77
2021/04/07 09:43:14;;;;;;;4.57;2.17;;;4.30;99.90;;;;;;5070980;28;20203;-77
2021/04/07 09:45:40;;;;;;;2.77;2.23;;;4.40;99.90;;;;;;5070830;28;20207;-77
2021/04/07 09:48:07;;;;;;;4.23;2.17;;;4.50;99.90;;;;;;5070834;28;20280;-78
2021/04/07 09:50:35;;;;;;;4.60;2.07;;;4.50;99.90;;;;;;5070593;28;20207;-78
2021/04/07 09:53:01;;;;;;;5.33;2.37;;;4.50;99.90;;;;;;5070775;28;20199;-77
2021/04/07 09:55:27;;;;;;;3.63;2.03;;;4.60;99.90;;;;;;5070785;28;20628;-78
2021/04/07 09:58:00;;;;;;;4.67;1.87;;;4.60;99.90;;;;;;5070725;28;20570;-78
2021/04/07 10:00:31;;;;;;;2.47;1.80;;;4.60;99.90;;;;;;5070584;28;20196;-78
2021/04/07 10:03:00;;;;;;;3.63;1.93;;;4.60;99.90;;;;;;5069995;28;20268;-77
2021/04/07 10:05:28;;;;;;;2.60;1.90;;;4.50;99.90;;;;;;5070671;28;20231;-78
2021/04/07 10:08:16;;;;;;;3.10;2.00;;;4.60;99.90;;;;;;5070371;28;20215;-77
2021/04/07 10:10:42;;;;;;;10.30;4.03;;;4.60;99.90;;;;;;5063243;28;20203;-79
2021/04/07 10:13:09;;;;;;;4.97;2.27;;;4.70;99.90;;;;;;5070505;28;20208;-78
2021/04/07 10:15:38;;;;;;;3.90;1.83;;;4.70;99.90;;;;;;5069991;28;20266;-78
2021/04/07 10:18:09;;;;;;;4.40;1.87;;;5.00;99.90;;;;;;5070362;28;20231;-77
2021/04/07 10:20:35;;;;;;;5.17;2.23;;;5.20;99.90;;;;;;5070236;28;20203;-78
2021/04/07 10:23:08;;;;;;;5.70;2.77;;;5.20;99.90;;;;;;5070403;28;20223;-78
2021/04/07 10:25:35;;;;;;;3.17;1.77;;;5.00;99.90;;;;;;5070383;28;20223;-77
2021/04/07 10:28:01;;;;;;;5.37;2.40;;;5.00;99.90;;;;;;5070004;28;20204;-77
2021/04/07 10:30:35;;;;;;;4.73;2.00;;;5.10;99.90;;;;;;5069652;28;20864;-78
2021/04/07 10:33:02;;;;;;;3.37;2.00;;;5.20;99.90;;;;;;5069972;28;20187;-78
2021/04/07 10:35:31;;;;;;;3.47;1.97;;;5.20;99.90;;;;;;5069672;28;20211;-78
2021/04/07 10:37:58;;;;;;;2.43;1.90;;;5.30;99.90;;;;;;5069588;28;20266;-78
2021/04/07 10:40:27;;;;;;;7.07;1.67;;;5.20;99.90;;;;;;5069910;28;20215;-78
2021/04/07 10:42:54;;;;;;;4.03;1.80;;;5.10;99.90;;;;;;5069573;28;20266;-78
2021/04/07 10:45:22;;;;;;;4.50;1.80;;;5.00;99.90;;;;;;5069998;28;20211;-77
2021/04/07 10:47:49;;;;;;;2.00;1.73;;;5.00;99.90;;;;;;5069235;28;20215;-78
2021/04/07 10:50:16;;;;;;;2.93;1.50;;;4.90;99.90;;;;;;5069616;28;20208;-78
2021/04/07 10:52:43;;;;;;;8.23;1.70;;;4.90;99.90;;;;;;5069186;28;20208;-78
2021/04/07 10:55:12;;;;;;;5.83;2.00;;;5.00;99.90;;;;;;5069580;28;20204;-77
2021/04/07 10:57:40;;;;;;;3.97;1.90;;;5.00;99.90;;;;;;5069180;28;20269;-78
2021/04/07 11:00:09;;;;;;;4.30;1.40;;;5.10;99.90;;;;;;5069423;28;20237;-78
2021/04/07 11:02:46;;;;;;;5.93;1.43;;;4.80;99.90;;;;;;5068883;28;20745;-78
2021/04/07 11:05:14;;;;;;;5.67;1.67;;;4.70;99.90;;;;;;5069351;28;20227;-77
2021/04/07 11:07:41;;;;;;;2.17;1.77;;;4.70;99.90;;;;;;5069366;28;20288;-77
2021/04/07 11:10:08;;;;;;;4.50;2.30;;;4.60;99.90;;;;;;5069395;28;20214;-77
2021/04/07 11:12:35;;;;;;;2.27;1.43;;;4.40;99.90;;;;;;5069280;28;20268;-77
2021/04/07 11:15:05;;;;;;;4.13;1.87;;;4.60;99.90;;;;;;5068337;28;20238;-77
2021/04/07 11:17:32;;;;;;;4.33;1.80;;;4.50;99.90;;;;;;5069382;28;20219;-77
2021/04/07 11:19:58;;;;;;;2.97;1.57;;;4.50;99.90;;;;;;5068863;28;20261;-77
2021/04/07 11:22:24;;;;;;;2.80;1.40;;;4.50;99.90;;;;;;5068916;28;20203;-78
2021/04/07 11:24:50;;;;;;;2.47;1.40;;;4.40;99.90;;;;;;5068927;28;20241;-77
2021/04/07 11:27:16;;;;;;;4.77;1.73;;;4.50;99.90;;;;;;5068979;28;20207;-78
2021/04/07 11:29:42;;;;;;;3.83;1.30;;;4.50;99.90;;;;;;5069030;28;20676;-78
2021/04/07 11:32:10;;;;;;;2.53;1.40;;;4.60;99.90;;;;;;5068928;28;20210;-78
2021/04/07 11:34:40;;;;;;;2.00;1.17;;;4.60;99.90;;;;;;5068909;28;20211;-77
2021/04/07 11:37:14;;;;;;;2.77;1.23;;;4.70;99.90;;;;;;5068867;28;20204;-77
2021/04/07 11:39:48;;;;;;;1.93;1.30;;;4.80;99.90;;;;;;5068470;28;20239;-77
2021/04/07 11:42:18;;;;;;;4.90;1.70;;;4.80;99.90;;;;;;5068877;28;20281;-78
2021/04/07 11:44:44;;;;;;;2.80;1.10;;;4.80;99.90;;;;;;5068315;28;20229;-78
2021/04/07 11:47:11;;;;;;;3.63;1.23;;;4.80;99.90;;;;;;5068691;28;20208;-78
2021/04/07 11:49:37;;;;;;;3.13;1.30;;;4.90;99.90;;;;;;5068172;28;20237;-77
2021/04/07 11:52:04;;;;;;;3.67;1.20;;;5.00;99.90;;;;;;5068593;28;20203;-78
2021/04/07 11:54:31;;;;;;;2.60;1.30;;;4.80;99.90;;;;;;5068724;28;20211;-77
2021/04/07 11:56:57;;;;;;;1.20;1.10;;;4.70;99.90;;;;;;5068153;28;20694;-77
2021/04/07 11:59:24;;;;;;;2.40;1.23;;;4.70;99.90;;;;;;5068424;28;20231;-77
2021/04/07 12:01:54;;;;;;;2.80;1.20;;;4.70;99.90;;;;;;5068146;28;20211;-78
2021/04/07 12:04:24;;;;;;;2.50;1.10;;;4.80;99.90;;;;;;5068371;28;20215;-77
2021/04/07 12:06:50;;;;;;;2.53;1.10;;;4.90;99.90;;;;;;5068322;28;20207;-78
2021/04/07 12:09:16;;;;;;;3.10;1.07;;;5.00;99.90;;;;;;5068513;28;20234;-77
2021/04/07 12:11:42;;;;;;;2.43;1.10;;;5.10;99.90;;;;;;5068124;28;20729;-77
2021/04/07 12:14:08;;;;;;;2.47;1.20;;;5.10;99.90;;;;;;5068250;28;20250;-77
2021/04/07 12:16:35;;;;;;;1.80;1.20;;;5.10;99.90;;;;;;5068642;28;20295;-77
2021/04/07 12:19:01;;;;;;;1.23;0.90;;;5.10;99.90;;;;;;5067735;28;20611;-77
2021/04/07 12:21:29;;;;;;;3.27;1.57;;;5.10;99.90;;;;;;5068462;28;20256;-77
2021/04/07 12:23:55;;;;;;;1.67;1.20;;;5.10;99.90;;;;;;5067846;28;20574;-78
2021/04/07 12:26:21;;;;;;;1.67;1.30;;;5.20;99.90;;;;;;5068846;28;20249;-78
2021/04/07 12:28:48;;;;;;;0.80;0.80;;;5.10;99.90;;;;;;5071821;28;20237;-77
2021/04/07 12:31:17;;;;;;;1.37;0.90;;;5.20;99.90;;;;;;5072324;28;20261;-77
2021/04/07 12:33:49;;;;;;;2.47;1.20;;;5.20;99.90;;;;;;5072074;28;20348;-77
2021/04/07 12:36:16;;;;;;;2.37;1.07;;;5.20;99.90;;;;;;5072197;28;20203;-78
2021/04/07 12:38:43;;;;;;;3.67;1.20;;;5.20;99.90;;;;;;5071870;28;20621;-78
2021/04/07 12:41:16;;;;;;;1.03;0.90;;;5.20;99.90;;;;;;5071962;28;20560;-77
2021/04/07 12:43:42;;;;;;;2.90;1.10;;;5.30;99.90;;;;;;5071473;28;20585;-77
2021/04/07 12:46:09;;;;;;;2.93;1.60;;;5.30;99.90;;;;;;5072068;28;20208;-78
2021/04/07 12:48:35;;;;;;;2.47;1.13;;;5.30;99.90;;;;;;5072107;28;20210;-77
2021/04/07 12:51:01;;;;;;;2.73;1.30;;;5.30;99.90;;;;;;5071765;28;20236;-78
2021/04/07 12:53:27;;;;;;;1.57;1.03;;;5.40;99.90;;;;;;5072031;28;20254;-77
2021/04/07 12:55:54;;;;;;;2.03;1.50;;;5.40;99.90;;;;;;5071798;28;20204;-77
2021/04/07 12:58:20;;;;;;;3.17;1.50;;;5.50;99.90;;;;;;5071837;28;20246;-78
2021/04/07 13:00:46;;;;;;;2.70;1.40;;;5.50;99.90;;;;;;5071519;28;20242;-78